Time;durP1;ratioP1;P1;durP2;ratioP2;P2;SDS_P1;SDS_P2;PMS_P1;PMS_P2;Temp;Humidity;BMP_temperature;BMP_pressure;BME280_temperature;BME280_humidity;BME280_pressure;Samples;Min_cycle;Max_cycle;Signal;HPM_P1;HPM_P2
2023/04/21 00:00:49;;;;;;;;;;;;;;;11.63;100.00;99066.63;5029991;28;19916;-41
2023/04/21 00:03:14;;;;;;;;;;;;;;;11.49;100.00;99061.09;5031456;28;19925;-40
2023/04/21 00:05:41;;;;;;;;;;;;;;;11.62;100.00;99083.00;5013744;28;19920;-40
2023/04/21 00:08:06;;;;;;;;;;;;;;;11.48;100.00;99106.69;5032221;28;19913;-40
2023/04/21 00:10:31;;;;;;;;;;;;;;;12.88;100.00;99100.72;5032450;28;20326;-40
2023/04/21 00:12:57;;;;;;;;;;;;;;;12.52;100.00;99032.38;5033199;28;20323;-41
2023/04/21 00:15:22;;;;;;;;;;;;;;;11.64;100.00;98988.34;5032456;28;20977;-40
2023/04/21 00:17:47;;;;;;;;;;;;;;;12.63;100.00;99015.59;5032066;28;20460;-40
2023/04/21 00:20:13;;;;;;;;;;;;;;;13.09;100.00;98972.31;5031182;28;20426;-40
2023/04/21 00:22:38;;;;;;;;;;;;;;;12.89;100.00;98898.22;5029970;28;19929;-40
2023/04/21 00:25:04;;;;;;;;;;;;;;;13.58;100.00;98871.91;5031563;28;19931;-40
2023/04/21 00:27:29;;;;;;;;;;;;;;;14.19;100.00;98817.19;5031840;28;19924;-40
2023/04/21 00:29:54;;;;;;;;;;;;;;;14.28;100.00;98774.44;5033237;28;19986;-40
2023/04/21 00:32:19;;;;;;;;;;;;;;;13.08;100.00;98781.94;5031540;28;19963;-40
2023/04/21 00:34:45;;;;;;;;;;;;;;;12.62;100.00;98827.91;5031091;28;20028;-40
2023/04/21 00:37:10;;;;;;;;;;;;;;;12.55;100.00;98835.06;5032047;28;20010;-40
2023/04/21 00:39:35;;;;;;;;;;;;;;;12.26;100.00;98847.47;5012584;28;19924;-43
2023/04/21 00:42:00;;;;;;;;;;;;;;;12.66;100.00;98847.53;5031570;28;20039;-40
2023/04/21 00:44:26;;;;;;;;;;;;;;;13.55;100.00;98848.75;5030443;28;19916;-40
2023/04/21 00:46:51;;;;;;;;;;;;;;;12.41;100.00;98840.81;5029831;28;19925;-40
2023/04/21 00:49:16;;;;;;;;;;;;;;;13.60;100.00;98857.97;5029593;28;19935;-40
2023/04/21 00:51:41;;;;;;;;;;;;;;;13.00;100.00;98871.91;5032353;28;20416;-40
2023/04/21 00:54:07;;;;;;;;;;;;;;;12.76;100.00;98848.81;5011952;28;20998;-40
2023/04/21 00:56:33;;;;;;;;;;;;;;;11.63;100.00;98862.00;5011161;28;19924;-40
2023/04/21 00:58:58;;;;;;;;;;;;;;;12.10;100.00;98929.00;5031391;28;19920;-40
2023/04/21 01:01:23;;;;;;;;;;;;;;;11.58;100.00;98951.59;5029166;28;20005;-40
2023/04/21 01:03:49;;;;;;;;;;;;;;;11.99;100.00;98968.13;5031444;28;20361;-40
2023/04/21 01:06:14;;;;;;;;;;;;;;;12.63;100.00;98956.16;5013298;28;20034;-40
2023/04/21 01:08:39;;;;;;;;;;;;;;;13.35;100.00;98893.66;5030183;28;19929;-40
2023/04/21 01:11:09;;;;;;;;;;;;;;;13.35;100.00;98860.84;5012141;28;19928;-40
2023/04/21 01:13:34;;;;;;;;;;;;;;;14.20;100.00;98828.38;5030489;28;19917;-40
2023/04/21 01:16:00;;;;;;;;;;;;;;;13.24;100.00;98795.81;5030344;28;19924;-40
2023/04/21 01:18:25;;;;;;;;;;;;;;;13.86;100.00;98798.13;5030234;28;21648;-40
2023/04/21 01:20:50;;;;;;;;;;;;;;;14.57;100.00;98774.72;5030742;28;20523;-40
2023/04/21 01:23:17;;;;;;;;;;;;;;;14.38;100.00;98759.25;5030706;28;20511;-40
2023/04/21 01:25:42;;;;;;;;;;;;;;;14.65;100.00;98744.06;5032368;28;19928;-50
2023/04/21 01:28:08;;;;;;;;;;;;;;;13.96;100.00;98726.88;5029603;28;21572;-40
2023/04/21 01:30:33;;;;;;;;;;;;;;;14.14;100.00;98725.94;5031247;28;20695;-40
2023/04/21 01:32:59;;;;;;;;;;;;;;;13.69;100.00;98724.72;5029454;28;20412;-40
2023/04/21 01:35:24;;;;;;;;;;;;;;;13.19;100.00;98746.06;5031110;28;19932;-41
2023/04/21 01:37:50;;;;;;;;;;;;;;;13.78;100.00;98757.94;5030463;28;19924;-41
2023/04/21 01:40:15;;;;;;;;;;;;;;;14.06;100.00;98748.78;5029286;28;19924;-41
2023/04/21 01:42:42;;;;;;;;;;;;;;;13.32;100.00;98775.66;5029698;28;19921;-40
2023/04/21 01:45:07;;;;;;;;;;;;;;;13.27;100.00;98769.81;5011853;28;19931;-40
2023/04/21 01:47:32;;;;;;;;;;;;;;;12.41;100.00;98832.25;5031559;28;19924;-40
2023/04/21 01:49:57;;;;;;;;;;;;;;;12.75;100.00;98891.06;5027903;28;19998;-40
2023/04/21 01:52:23;;;;;;;;;;;;;;;13.13;100.00;98896.31;5030008;28;19932;-40
2023/04/21 01:54:48;;;;;;;;;;;;;;;12.29;100.00;98903.28;5030372;28;19920;-40
2023/04/21 01:57:13;;;;;;;;;;;;;;;12.29;100.00;98950.63;5030000;28;19932;-40
2023/04/21 01:59:39;;;;;;;;;;;;;;;12.02;100.00;98983.53;5027733;28;19921;-40
2023/04/21 02:02:04;;;;;;;;;;;;;;;11.32;100.00;99004.97;5025589;28;19960;-40
2023/04/21 02:04:29;;;;;;;;;;;;;;;12.40;100.00;99083.66;5010179;28;20282;-40
2023/04/21 02:06:54;;;;;;;;;;;;;;;12.16;100.00;99067.31;5007449;28;20047;-39
2023/04/21 02:09:20;;;;;;;;;;;;;;;13.13;100.00;99083.31;5029769;28;19917;-39
2023/04/21 02:11:45;;;;;;;;;;;;;;;11.48;100.00;99060.25;5031463;28;20074;-39
2023/04/21 02:14:10;;;;;;;;;;;;;;;12.25;100.00;99128.97;5028374;28;20577;-39
2023/04/21 02:16:35;;;;;;;;;;;;;;;12.21;100.00;99132.56;5028744;28;20389;-39
2023/04/21 02:19:01;;;;;;;;;;;;;;;11.83;100.00;99152.78;5027743;28;19920;-39
2023/04/21 02:21:26;;;;;;;;;;;;;;;12.44;100.00;99167.88;5028987;28;21207;-39
2023/04/21 02:23:52;;;;;;;;;;;;;;;12.33;100.00;99160.50;5027893;28;19927;-39
2023/04/21 02:26:18;;;;;;;;;;;;;;;12.18;100.00;99143.84;5030286;28;19935;-41
2023/04/21 02:28:43;;;;;;;;;;;;;;;12.42;100.00;99136.94;5032787;28;19925;-38
2023/04/21 02:31:08;;;;;;;;;;;;;;;12.41;100.00;99143.00;5032275;28;19924;-39
2023/04/21 02:33:33;;;;;;;;;;;;;;;12.54;100.00;99110.66;5012077;28;19927;-38
2023/04/21 02:35:59;;;;;;;;;;;;;;;13.79;100.00;99093.47;5031424;28;19927;-38
2023/04/21 02:38:24;;;;;;;;;;;;;;;14.99;100.00;99001.59;5030620;28;19925;-39
2023/04/21 02:40:49;;;;;;;;;;;;;;;15.42;100.00;98872.25;5031547;28;19929;-40
2023/04/21 02:43:14;;;;;;;;;;;;;;;15.57;100.00;98764.16;5031828;28;19924;-38
2023/04/21 02:45:40;;;;;;;;;;;;;;;15.66;100.00;98714.31;5029365;28;19929;-40
2023/04/21 02:48:05;;;;;;;;;;;;;;;14.15;100.00;98717.25;5031814;28;19968;-38
2023/04/21 02:50:30;;;;;;;;;;;;;;;14.19;100.00;98765.38;5030429;28;20027;-40
2023/04/21 02:52:55;;;;;;;;;;;;;;;13.77;100.00;98789.88;5031158;28;20265;-40
2023/04/21 02:55:21;;;;;;;;;;;;;;;14.95;100.00;98790.84;5031678;28;20043;-40
2023/04/21 02:57:46;;;;;;;;;;;;;;;15.71;100.00;98716.66;5029295;28;19920;-40
2023/04/21 03:00:12;;;;;;;;;;;;;;;15.69;100.00;98677.78;5027576;28;20470;-40
2023/04/21 03:02:37;;;;;;;;;;;;;;;15.06;100.00;98673.59;5030852;28;19987;-40
2023/04/21 03:05:03;;;;;;;;;;;;;;;15.53;100.00;98677.00;5011524;28;19917;-40
2023/04/21 03:07:28;;;;;;;;;;;;;;;15.78;100.00;98656.53;5031990;28;19942;-40
2023/04/21 03:09:53;;;;;;;;;;;;;;;15.96;100.00;98644.19;5028664;28;19928;-41
2023/04/21 03:12:19;;;;;;;;;;;;;;;15.93;100.00;98635.75;5012688;28;19968;-40
2023/04/21 03:14:44;;;;;;;;;;;;;;;15.85;100.00;98634.47;5031600;28;20502;-40
2023/04/21 03:17:09;;;;;;;;;;;;;;;15.46;100.00;98629.78;5032316;28;20625;-41
2023/04/21 03:19:34;;;;;;;;;;;;;;;15.22;100.00;98655.41;5030561;28;20765;-41
2023/04/21 03:22:00;;;;;;;;;;;;;;;15.96;100.00;98635.56;5030763;28;20918;-40
2023/04/21 03:24:25;;;;;;;;;;;;;;;14.74;100.00;98659.81;5031010;28;19924;-40
2023/04/21 03:26:50;;;;;;;;;;;;;;;14.49;100.00;98686.16;5011651;28;19927;-41
2023/04/21 03:29:15;;;;;;;;;;;;;;;14.42;100.00;98690.84;5029304;28;19920;-40
2023/04/21 03:31:41;;;;;;;;;;;;;;;14.37;100.00;98734.28;5030079;28;19920;-40
2023/04/21 03:34:06;;;;;;;;;;;;;;;14.41;100.00;98733.19;5029459;28;19921;-40
2023/04/21 03:36:31;;;;;;;;;;;;;;;13.79;100.00;98728.53;5030815;28;19920;-40
2023/04/21 03:38:57;;;;;;;;;;;;;;;14.15;100.00;98727.59;5029579;28;19920;-40
2023/04/21 03:41:22;;;;;;;;;;;;;;;14.04;100.00;98711.78;5031192;28;19966;-40
2023/04/21 03:43:49;;;;;;;;;;;;;;;14.68;100.00;98719.75;5029776;28;20369;-40
2023/04/21 03:46:20;;;;;;;;;;;;;;;14.36;100.00;98719.63;5013090;28;19920;-41
2023/04/21 03:48:46;;;;;;;;;;;;;;;14.06;100.00;98707.34;5030692;28;20328;-40
2023/04/21 03:51:12;;;;;;;;;;;;;;;14.63;100.00;98751.09;5029558;28;19921;-40
2023/04/21 03:53:37;;;;;;;;;;;;;;;14.10;100.00;98755.50;5041153;28;19921;-40
2023/04/21 03:56:02;;;;;;;;;;;;;;;14.10;100.00;98771.03;5029617;28;19931;-40
2023/04/21 03:58:27;;;;;;;;;;;;;;;14.89;100.00;98735.88;5029497;28;19921;-40
2023/04/21 04:00:52;;;;;;;;;;;;;;;13.90;100.00;98735.75;5028002;28;20267;-42
2023/04/21 04:03:18;;;;;;;;;;;;;;;14.64;100.00;98738.06;5032606;28;19967;-40
2023/04/21 04:05:43;;;;;;;;;;;;;;;14.71;100.00;98728.19;5029135;28;20011;-40
2023/04/21 04:08:08;;;;;;;;;;;;;;;15.04;100.00;98704.78;5031939;28;19926;-40
2023/04/21 04:10:33;;;;;;;;;;;;;;;15.03;100.00;98687.56;5029939;28;20086;-40
2023/04/21 04:12:58;;;;;;;;;;;;;;;15.03;100.00;98666.81;5029123;28;20126;-40
2023/04/21 04:15:24;;;;;;;;;;;;;;;13.98;100.00;98678.41;5030824;28;20023;-40
2023/04/21 04:17:49;;;;;;;;;;;;;;;14.89;100.00;98674.50;5031047;28;20598;-40
2023/04/21 04:20:14;;;;;;;;;;;;;;;14.86;100.00;98679.84;5029628;28;20107;-40
2023/04/21 04:22:40;;;;;;;;;;;;;;;14.05;100.00;98684.97;5028570;28;20460;-40
2023/04/21 04:25:05;;;;;;;;;;;;;;;14.66;100.00;98704.25;5029530;28;20049;-40
2023/04/21 04:27:31;;;;;;;;;;;;;;;14.51;100.00;98712.84;5010953;28;20007;-40
2023/04/21 04:29:56;;;;;;;;;;;;;;;13.83;100.00;98739.56;5029947;28;19928;-40
2023/04/21 04:32:21;;;;;;;;;;;;;;;13.19;100.00;98766.75;5030551;28;20704;-40
2023/04/21 04:34:47;;;;;;;;;;;;;;;14.06;100.00;98790.22;5030619;28;19931;-40
2023/04/21 04:37:12;;;;;;;;;;;;;;;14.51;100.00;98739.56;5032841;28;19974;-40
2023/04/21 04:39:37;;;;;;;;;;;;;;;14.71;100.00;98729.94;5032534;28;19942;-40
2023/04/21 04:42:05;;;;;;;;;;;;;;;13.96;100.00;98756.19;5031784;28;20646;-40
2023/04/21 04:44:30;;;;;;;;;;;;;;;14.54;100.00;98748.94;5030838;28;19977;-40
2023/04/21 04:46:56;;;;;;;;;;;;;;;13.71;100.00;98766.91;5031552;28;20680;-40
2023/04/21 04:49:21;;;;;;;;;;;;;;;14.29;100.00;98801.19;5027533;28;19921;-40
2023/04/21 04:51:46;;;;;;;;;;;;;;;13.60;100.00;98813.16;5031055;28;19921;-40
2023/04/21 04:54:11;;;;;;;;;;;;;;;14.88;100.00;98793.88;5030776;28;19925;-40
2023/04/21 04:56:36;;;;;;;;;;;;;;;14.80;100.00;98764.00;5031048;28;19924;-40
2023/04/21 04:59:02;;;;;;;;;;;;;;;14.37;100.00;98762.78;5028729;28;20373;-40
2023/04/21 05:01:29;;;;;;;;;;;;;;;15.17;100.00;98762.00;5030896;28;19925;-40
2023/04/21 05:03:55;;;;;;;;;;;;;;;14.50;100.00;98743.06;5030511;28;20051;-40
2023/04/21 05:06:20;;;;;;;;;;;;;;;14.83;100.00;98761.22;5030547;28;19923;-40
2023/04/21 05:08:45;;;;;;;;;;;;;;;14.44;100.00;98779.69;5029816;28;20540;-40
2023/04/21 05:11:10;;;;;;;;;;;;;;;14.05;100.00;98787.69;5032139;28;20565;-40
2023/04/21 05:13:35;;;;;;;;;;;;;;;14.22;100.00;98806.66;5030167;28;20713;-40
2023/04/21 05:16:01;;;;;;;;;;;;;;;14.17;100.00;98798.28;5030889;28;19942;-40
2023/04/21 05:18:26;;;;;;;;;;;;;;;14.20;100.00;98818.00;5031462;28;21660;-40
2023/04/21 05:20:51;;;;;;;;;;;;;;;12.83;100.00;98821.78;5028455;28;20189;-40
2023/04/21 05:23:16;;;;;;;;;;;;;;;13.08;100.00;98885.34;5029369;28;19952;-40
2023/04/21 05:25:42;;;;;;;;;;;;;;;12.93;100.00;98923.88;5030186;28;20011;-40
2023/04/21 05:28:07;;;;;;;;;;;;;;;14.01;100.00;98958.75;5029409;28;19916;-40
2023/04/21 05:30:32;;;;;;;;;;;;;;;14.12;100.00;98919.41;5030757;28;19925;-40
2023/04/21 05:32:57;;;;;;;;;;;;;;;13.87;100.00;98914.53;5029669;28;19920;-40
2023/04/21 05:35:22;;;;;;;;;;;;;;;15.01;100.00;98909.81;5029270;28;19932;-40
2023/04/21 05:37:48;;;;;;;;;;;;;;;14.85;100.00;98912.38;5030600;28;20015;-40
2023/04/21 05:40:13;;;;;;;;;;;;;;;14.87;100.00;98891.56;5029322;28;19994;-40
2023/04/21 05:42:38;;;;;;;;;;;;;;;14.40;100.00;98892.97;5030474;28;19944;-40
2023/04/21 05:45:04;;;;;;;;;;;;;;;14.55;100.00;98891.44;5030119;28;20063;-40
2023/04/21 05:47:29;;;;;;;;;;;;;;;13.42;100.00;98920.06;5028337;28;19924;-40
2023/04/21 05:49:54;;;;;;;;;;;;;;;13.55;100.00;98937.56;5029344;28;19936;-40
2023/04/21 05:52:22;;;;;;;;;;;;;;;13.96;100.00;98970.25;5030178;28;20372;-40
2023/04/21 05:54:47;;;;;;;;;;;;;;;13.34;100.00;98983.34;5030200;28;21860;-40
2023/04/21 05:57:13;;;;;;;;;;;;;;;14.35;100.00;99031.44;5030764;28;19925;-40
2023/04/21 05:59:38;;;;;;;;;;;;;;;14.77;100.00;98989.69;5010461;28;19971;-40
2023/04/21 06:02:03;;;;;;;;;;;;;;;15.47;100.00;98932.53;5033315;28;19920;-40
2023/04/21 06:04:28;;;;;;;;;;;;;;;15.82;100.00;98844.94;5029874;28;19920;-40
2023/04/21 06:06:54;;;;;;;;;;;;;;;14.69;100.00;98835.44;5030296;28;19927;-40
2023/04/21 06:09:19;;;;;;;;;;;;;;;15.64;100.00;98845.94;5028745;28;19925;-40
2023/04/21 06:11:44;;;;;;;;;;;;;;;14.66;100.00;98836.44;5029687;28;20896;-40
2023/04/21 06:14:09;;;;;;;;;;;;;;;15.10;100.00;98866.16;5029320;28;19921;-40
2023/04/21 06:16:35;;;;;;;;;;;;;;;14.37;100.00;98858.63;5031069;28;19962;-40
2023/04/21 06:19:00;;;;;;;;;;;;;;;16.67;100.00;98801.94;5029156;28;20042;-40
2023/04/21 06:21:25;;;;;;;;;;;;;;;16.34;100.00;98697.38;5031744;28;19932;-40
2023/04/21 06:23:50;;;;;;;;;;;;;;;15.86;100.00;98706.22;5028362;28;19923;-40
2023/04/21 06:26:16;;;;;;;;;;;;;;;15.54;100.00;98730.59;5030954;28;19916;-40
2023/04/21 06:28:41;;;;;;;;;;;;;;;15.61;100.00;98727.53;5027626;28;19921;-40
2023/04/21 06:31:06;;;;;;;;;;;;;;;15.45;100.00;98737.97;5027537;28;19929;-40
2023/04/21 06:33:32;;;;;;;;;;;;;;;15.59;100.00;98765.72;5029969;28;19928;-40
2023/04/21 06:35:57;;;;;;;;;;;;;;;14.78;100.00;98772.75;5030535;28;19941;-40
2023/04/21 06:38:22;;;;;;;;;;;;;;;15.04;100.00;98790.34;5029847;28;19944;-40
2023/04/21 06:40:47;;;;;;;;;;;;;;;16.18;100.00;98773.66;5029352;28;19974;-40
2023/04/21 06:43:13;;;;;;;;;;;;;;;15.23;100.00;98772.03;5010977;28;19964;-40
2023/04/21 06:45:38;;;;;;;;;;;;;;;15.21;100.00;98760.06;5029576;28;19951;-40
2023/04/21 06:48:03;;;;;;;;;;;;;;;14.97;100.00;98777.81;5026135;28;19928;-40
2023/04/21 06:50:29;;;;;;;;;;;;;;;15.37;100.00;98763.53;5028218;28;19925;-40
2023/04/21 06:52:54;;;;;;;;;;;;;;;16.14;100.00;98759.16;5029575;28;19968;-40
2023/04/21 06:55:19;;;;;;;;;;;;;;;15.79;100.00;98746.47;5032462;28;19917;-41
2023/04/21 06:57:45;;;;;;;;;;;;;;;16.64;100.00;98713.69;5030847;28;19939;-41
2023/04/21 07:00:10;;;;;;;;;;;;;;;15.74;100.00;98696.56;5009802;28;20395;-40
2023/04/21 07:02:35;;;;;;;;;;;;;;;16.07;100.00;98730.09;5029576;28;19948;-40
2023/04/21 07:05:01;;;;;;;;;;;;;;;15.94;100.00;98702.34;5029093;28;20380;-40
2023/04/21 07:07:26;;;;;;;;;;;;;;;17.01;100.00;98693.22;5027551;28;21768;-40
2023/04/21 07:09:51;;;;;;;;;;;;;;;16.02;100.00;98694.94;5029275;28;20691;-40
2023/04/21 07:12:17;;;;;;;;;;;;;;;16.23;100.00;98705.81;5032139;28;19920;-40
2023/04/21 07:14:42;;;;;;;;;;;;;;;17.00;100.00;98667.31;5034031;28;19978;-40
2023/04/21 07:17:07;;;;;;;;;;;;;;;15.77;100.00;98659.19;5034459;28;19916;-40
2023/04/21 07:19:32;;;;;;;;;;;;;;;16.30;100.00;98679.34;5013537;28;19923;-40
2023/04/21 07:21:58;;;;;;;;;;;;;;;16.41;100.00;98675.28;5032583;28;19921;-40
2023/04/21 07:24:23;;;;;;;;;;;;;;;15.76;100.00;98658.38;5033528;28;19920;-40
2023/04/21 07:26:48;;;;;;;;;;;;;;;16.30;100.00;98674.16;5033388;28;19916;-40
2023/04/21 07:29:13;;;;;;;;;;;;;;;16.56;100.00;98660.50;5031426;28;19970;-40
2023/04/21 07:31:39;;;;;;;;;;;;;;;17.02;100.00;98640.28;5033285;28;19982;-40
2023/04/21 07:34:04;;;;;;;;;;;;;;;17.00;100.00;98620.50;5033156;28;20089;-40
2023/04/21 07:36:30;;;;;;;;;;;;;;;16.86;100.00;98617.00;5033129;28;20518;-40
2023/04/21 07:38:55;;;;;;;;;;;;;;;17.69;100.00;98589.91;5033269;28;19920;-39
2023/04/21 07:41:21;;;;;;;;;;;;;;;17.09;100.00;98604.28;5033184;28;21938;-40
2023/04/21 07:43:46;;;;;;;;;;;;;;;17.25;100.00;98606.72;5032306;28;20003;-40
2023/04/21 07:46:12;;;;;;;;;;;;;;;17.13;100.00;98596.19;5034547;28;19956;-39
2023/04/21 07:48:38;;;;;;;;;;;;;;;17.03;100.00;98604.69;5028286;28;19925;-39
2023/04/21 07:51:03;;;;;;;;;;;;;;;17.51;100.00;98599.78;5034337;28;20008;-40
2023/04/21 07:53:29;;;;;;;;;;;;;;;16.99;100.00;98593.66;5034494;28;20506;-40
2023/04/21 07:55:54;;;;;;;;;;;;;;;17.72;100.00;98581.88;5032927;28;20372;-40
2023/04/21 07:58:20;;;;;;;;;;;;;;;17.26;100.00;98584.97;5014004;28;19986;-39
2023/04/21 08:00:45;;;;;;;;;;;;;;;17.19;100.00;98600.13;5031190;28;19924;-40
2023/04/21 08:03:10;;;;;;;;;;;;;;;16.63;100.00;98613.25;5033104;28;21613;-39
2023/04/21 08:05:36;;;;;;;;;;;;;;;17.30;100.00;98607.25;5032244;28;19970;-40
2023/04/21 08:08:01;;;;;;;;;;;;;;;17.38;100.00;98605.00;5032068;28;20074;-40
2023/04/21 08:10:26;;;;;;;;;;;;;;;17.38;100.00;98589.38;5031058;28;20256;-40
2023/04/21 08:12:51;;;;;;;;;;;;;;;17.58;100.00;98581.97;5032250;28;19920;-39
2023/04/21 08:15:17;;;;;;;;;;;;;;;18.02;100.00;98578.13;5014907;28;19917;-40
2023/04/21 08:17:42;;;;;;;;;;;;;;;16.95;100.00;98600.00;5013286;28;20108;-40
2023/04/21 08:20:08;;;;;;;;;;;;;;;16.38;100.00;98620.91;5031486;28;19958;-39
2023/04/21 08:22:35;;;;;;;;;;;;;;;15.40;100.00;98636.19;5031820;28;20073;-40
2023/04/21 08:25:00;;;;;;;;;;;;;;;16.50;100.00;98610.56;5032027;28;19927;-40
2023/04/21 08:27:25;;;;;;;;;;;;;;;15.68;100.00;98631.97;5032677;28;19920;-40
2023/04/21 08:29:51;;;;;;;;;;;;;;;15.67;100.00;98633.75;5031937;28;19925;-39
2023/04/21 08:32:22;;;;;;;;;;;;;;;16.51;100.00;98629.59;5032553;28;19921;-40
2023/04/21 08:34:47;;;;;;;;;;;;;;;16.77;100.00;98619.34;5030981;28;19920;-40
2023/04/21 08:37:13;;;;;;;;;;;;;;;16.10;100.00;98631.22;5031483;28;19927;-40
2023/04/21 08:39:38;;;;;;;;;;;;;;;16.95;100.00;98604.38;5030836;28;20075;-40
2023/04/21 08:42:03;;;;;;;;;;;;;;;18.36;100.00;98566.19;5030607;28;20332;-40
2023/04/21 08:44:28;;;;;;;;;;;;;;;17.79;100.00;98567.50;5030538;28;21173;-40
2023/04/21 08:46:54;;;;;;;;;;;;;;;17.95;100.00;98547.31;5031921;28;19956;-40
2023/04/21 08:49:19;;;;;;;;;;;;;;;18.30;100.00;98561.41;5010524;28;20062;-40
2023/04/21 08:51:45;;;;;;;;;;;;;;;18.12;100.00;98553.09;5030635;28;20901;-40
2023/04/21 08:54:10;;;;;;;;;;;;;;;19.60;100.00;98522.28;5033144;28;19959;-40
2023/04/21 08:56:35;;;;;;;;;;;;;;;18.84;100.00;98534.09;5031934;28;19921;-40
2023/04/21 08:59:00;;;;;;;;;;;;;;;19.85;100.00;98518.66;5009971;28;20005;-40
2023/04/21 09:01:26;;;;;;;;;;;;;;;18.68;100.00;98555.22;5034003;28;20011;-40
2023/04/21 09:03:51;;;;;;;;;;;;;;;17.98;100.00;98551.47;5031455;28;19922;-40
2023/04/21 09:06:16;;;;;;;;;;;;;;;18.37;100.00;98568.69;5032355;28;19944;-40
2023/04/21 09:08:42;;;;;;;;;;;;;;;19.04;100.00;98551.72;5031552;28;19925;-40
2023/04/21 09:11:07;;;;;;;;;;;;;;;18.97;100.00;98543.50;5032724;28;20368;-40
2023/04/21 09:13:36;;;;;;;;;;;;;;;19.21;100.00;98533.03;5029983;28;19921;-40
2023/04/21 09:16:05;;;;;;;;;;;;;;;18.26;100.00;98566.00;5031011;28;19932;-40
2023/04/21 09:18:38;;;;;;;;;;;;;;;19.47;100.00;98527.59;5011349;28;20828;-40
2023/04/21 09:21:11;;;;;;;;;;;;;;;18.92;100.00;98531.75;5031704;28;19971;-40
2023/04/21 09:23:43;;;;;;;;;;;;;;;18.83;100.00;98551.53;5030770;28;20012;-40
2023/04/21 09:26:08;;;;;;;;;;;;;;;18.06;100.00;98563.94;5030379;28;19921;-40
2023/04/21 09:28:34;;;;;;;;;;;;;;;17.80;100.00;98552.72;5031662;28;19927;-40
2023/04/21 09:30:59;;;;;;;;;;;;;;;18.81;100.00;98532.53;5009780;28;19931;-40
2023/04/21 09:33:24;;;;;;;;;;;;;;;18.14;100.00;98546.84;5030067;28;19959;-40
2023/04/21 09:35:50;;;;;;;;;;;;;;;17.89;100.00;98575.56;5030754;28;19967;-40
2023/04/21 09:38:15;;;;;;;;;;;;;;;18.62;100.00;98559.09;5013553;28;19917;-40
2023/04/21 09:40:41;;;;;;;;;;;;;;;17.94;100.00;98584.72;5030107;28;20638;-40
2023/04/21 09:43:06;;;;;;;;;;;;;;;17.97;100.00;98575.84;5029987;28;20405;-40
2023/04/21 09:45:32;;;;;;;;;;;;;;;17.66;100.00;98572.72;5029733;28;20650;-40
2023/04/21 09:47:59;;;;;;;;;;;;;;;18.39;100.00;98558.97;5027176;28;20027;-40
2023/04/21 09:50:25;;;;;;;;;;;;;;;17.64;100.00;98563.34;5030639;28;19932;-40
2023/04/21 09:52:50;;;;;;;;;;;;;;;17.86;100.00;98550.56;5031360;28;20423;-40
2023/04/21 09:55:15;;;;;;;;;;;;;;;18.34;100.00;98542.00;5010726;28;19924;-40
2023/04/21 09:57:41;;;;;;;;;;;;;;;17.97;100.00;98558.47;5030633;28;19917;-40
2023/04/21 10:00:08;;;;;;;;;;;;;;;18.95;100.00;98528.91;5028985;28;19974;-40
2023/04/21 10:02:34;;;;;;;;;;;;;;;19.34;100.00;98506.84;5029989;28;19925;-40
2023/04/21 10:04:59;;;;;;;;;;;;;;;18.00;100.00;98522.72;5029735;28;19916;-40
2023/04/21 10:07:24;;;;;;;;;;;;;;;18.38;100.00;98528.66;5010567;28;20435;-40
2023/04/21 10:09:51;;;;;;;;;;;;;;;18.62;100.00;98493.91;5029859;28;20419;-40
2023/04/21 10:12:16;;;;;;;;;;;;;;;19.15;100.00;98485.66;5011287;28;21838;-40
2023/04/21 10:14:41;;;;;;;;;;;;;;;19.96;100.00;98471.59;5011367;28;19920;-40
2023/04/21 10:17:08;;;;;;;;;;;;;;;19.94;100.00;98460.44;5011561;28;19913;-40
2023/04/21 10:19:38;;;;;;;;;;;;;;;19.91;100.00;98455.44;5009601;28;19921;-40
2023/04/21 10:22:04;;;;;;;;;;;;;;;21.18;100.00;98433.72;5030188;28;19924;-40
2023/04/21 10:24:30;;;;;;;;;;;;;;;20.95;100.00;98437.47;5029974;28;19920;-40
2023/04/21 10:26:58;;;;;;;;;;;;;;;19.95;100.00;98456.84;5029255;28;20117;-40
2023/04/21 10:29:30;;;;;;;;;;;;;;;20.09;100.00;98450.53;5030046;28;20045;-40
2023/04/21 10:31:55;;;;;;;;;;;;;;;19.90;100.00;98471.25;5031767;28;19921;-40
2023/04/21 10:34:40;;;;;;;;;;;;;;;21.88;100.00;98420.78;5030440;28;19961;-40
2023/04/21 10:37:05;;;;;;;;;;;;;;;21.98;100.00;98416.38;5030504;28;19920;-40
2023/04/21 10:39:35;;;;;;;;;;;;;;;21.37;100.00;98421.69;5028570;28;19920;-40
2023/04/21 10:42:16;;;;;;;;;;;;;;;20.33;100.00;98458.19;5028960;28;20027;-40
2023/04/21 10:44:41;;;;;;;;;;;;;;;20.62;100.00;98441.94;5031212;28;19920;-40
2023/04/21 10:47:06;;;;;;;;;;;;;;;19.45;100.00;98482.50;5032217;28;19921;-40
2023/04/21 10:49:32;;;;;;;;;;;;;;;20.20;100.00;98468.78;5029127;28;19916;-40
2023/04/21 10:52:04;;;;;;;;;;;;;;;20.01;100.00;98463.38;5016231;28;19916;-40
2023/04/21 10:54:35;;;;;;;;;;;;;;;20.42;100.00;98467.91;5035500;28;19921;-40
2023/04/21 10:57:01;;;;;;;;;;;;;;;20.70;100.00;98439.50;5034157;28;19980;-40
2023/04/21 10:59:27;;;;;;;;;;;;;;;19.77;100.00;98455.69;5030594;28;20048;-40
2023/04/21 11:01:52;;;;;;;;;;;;;;;20.11;100.00;98458.25;5032330;28;19924;-40
2023/04/21 11:04:18;;;;;;;;;;;;;;;20.03;100.00;98436.16;5034831;28;20352;-40
2023/04/21 11:06:48;;;;;;;;;;;;;;;21.42;100.00;98417.75;5032099;28;20472;-40
2023/04/21 11:09:14;;;;;;;;;;;;;;;22.76;100.00;98374.41;5013619;28;19917;-40
2023/04/21 11:11:40;;;;;;;;;;;;;;;21.95;98.65;98373.88;5034052;28;19920;-40
2023/04/21 11:14:05;;;;;;;;;;;;;;;22.14;100.00;98389.63;5033369;28;20018;-40
2023/04/21 11:16:30;;;;;;;;;;;;;;;20.87;100.00;98419.81;5032828;28;19921;-40
2023/04/21 11:18:55;;;;;;;;;;;;;;;21.09;100.00;98416.19;5031546;28;20545;-40
2023/04/21 11:21:21;;;;;;;;;;;;;;;21.57;100.00;98406.91;5033690;28;19927;-40
2023/04/21 11:23:47;;;;;;;;;;;;;;;22.77;99.88;98370.81;5033816;28;19917;-40
2023/04/21 11:26:12;;;;;;;;;;;;;;;22.83;99.94;98359.75;5031753;28;20548;-40
2023/04/21 11:28:39;;;;;;;;;;;;;;;21.16;100.00;98388.50;5012529;28;19937;-40
2023/04/21 11:31:04;;;;;;;;;;;;;;;22.20;100.00;98367.28;5013703;28;20369;-40
2023/04/21 11:33:30;;;;;;;;;;;;;;;21.43;100.00;98387.16;5033426;28;19971;-40
2023/04/21 11:35:57;;;;;;;;;;;;;;;21.74;100.00;98364.34;5015816;28;20035;-40
2023/04/21 11:38:23;;;;;;;;;;;;;;;21.78;100.00;98380.59;5013772;28;19925;-40
2023/04/21 11:40:48;;;;;;;;;;;;;;;22.84;98.61;98350.06;5031015;28;19925;-40
2023/04/21 11:43:14;;;;;;;;;;;;;;;22.62;98.54;98351.22;5032653;28;19963;-40
2023/04/21 11:45:39;;;;;;;;;;;;;;;21.81;99.02;98364.63;5014345;28;19920;-40
2023/04/21 11:48:18;;;;;;;;;;;;;;;21.98;100.00;98363.94;5029769;28;19977;-40
2023/04/21 11:50:47;;;;;;;;;;;;;;;23.02;99.97;98345.75;5032093;28;19936;-40
2023/04/21 11:53:13;;;;;;;;;;;;;;;24.29;94.19;98311.59;5033785;28;20000;-40
2023/04/21 11:55:40;;;;;;;;;;;;;;;22.01;93.73;98337.47;5032043;28;19963;-40
2023/04/21 11:58:06;;;;;;;;;;;;;;;21.55;99.69;98365.09;5033391;28;20438;-40
2023/04/21 12:00:31;;;;;;;;;;;;;;;23.60;93.99;98313.09;5032511;28;19927;-40
2023/04/21 12:02:57;;;;;;;;;;;;;;;21.93;97.80;98358.28;5031962;28;20402;-40
2023/04/21 12:05:22;;;;;;;;;;;;;;;23.98;93.54;98308.56;5032078;28;21040;-40
2023/04/21 12:07:48;;;;;;;;;;;;;;;23.33;90.07;98304.28;5031651;28;19946;-41
2023/04/21 12:10:16;;;;;;;;;;;;;;;21.70;100.00;98374.25;5028667;28;19947;-41
2023/04/21 12:12:41;;;;;;;;;;;;;;;20.98;100.00;98401.41;5032122;28;20035;-41
2023/04/21 12:15:07;;;;;;;;;;;;;;;23.47;98.68;98325.75;5030600;28;19927;-41
2023/04/21 12:17:46;;;;;;;;;;;;;;;23.98;93.03;98298.03;5030854;28;19967;-41
2023/04/21 12:20:11;;;;;;;;;;;;;;;22.50;93.68;98314.66;5030324;28;19932;-41
2023/04/21 12:22:36;;;;;;;;;;;;;;;21.76;97.96;98343.22;5032132;28;19925;-41
2023/04/21 12:25:01;;;;;;;;;;;;;;;21.27;100.00;98358.78;5031001;28;19916;-41
2023/04/21 12:27:27;;;;;;;;;;;;;;;20.89;100.00;98395.16;5029474;28;19921;-41
2023/04/21 12:29:52;;;;;;;;;;;;;;;22.20;100.00;98356.78;5031209;28;19928;-41